Time;durP1;ratioP1;P1;durP2;ratioP2;P2;SDS_P1;SDS_P2;PMS_P1;PMS_P2;Temp;Humidity;BMP_temperature;BMP_pressure;BME280_temperature;BME280_humidity;BME280_pressure;Samples;Min_cycle;Max_cycle;Signal;HPM_P1;HPM_P2
2022/02/08 00:00:05;;;;;;;11.80;4.17;;;;;;;5.50;72.54;101814.03;5057618;28;20419;-70
2022/02/08 00:02:34;;;;;;;6.07;3.70;;;;;;;5.47;73.08;101807.84;5057462;28;20448;-68
2022/02/08 00:04:59;;;;;;;7.63;3.60;;;;;;;5.56;72.64;101810.84;5060224;28;20423;-70
2022/02/08 00:07:30;;;;;;;6.43;3.00;;;;;;;5.48;72.91;101809.59;5044047;28;20424;-69
2022/02/08 00:09:55;;;;;;;10.73;3.70;;;;;;;5.38;73.01;101803.97;5059891;28;20169;-70
2022/02/08 00:12:20;;;;;;;7.63;4.30;;;;;;;5.66;72.43;101802.72;5061206;28;20432;-70
2022/02/08 00:14:47;;;;;;;8.67;3.87;;;;;;;5.79;71.92;101803.28;5060844;28;20209;-70
2022/02/08 00:17:14;;;;;;;8.57;3.63;;;;;;;5.53;72.47;101798.69;5061862;28;20173;-69
2022/02/08 00:19:39;;;;;;;6.73;4.20;;;;;;;5.93;71.38;101797.06;5045328;28;20868;-67
2022/02/08 00:22:04;;;;;;;9.33;3.70;;;;;;;5.86;71.17;101793.28;5058676;28;20451;-71
2022/02/08 00:24:30;;;;;;;8.27;3.90;;;;;;;5.57;72.08;101794.53;5061158;28;20172;-69
2022/02/08 00:26:55;;;;;;;11.80;4.07;;;;;;;5.57;72.36;101794.53;5060979;28;20240;-69
2022/02/08 00:29:21;;;;;;;9.13;4.23;;;;;;;5.59;71.82;101803.25;5061372;28;20577;-68
2022/02/08 00:31:47;;;;;;;8.80;4.30;;;;;;;5.57;71.94;101800.59;5061780;28;20201;-70
2022/02/08 00:34:12;;;;;;;8.27;3.67;;;;;;;5.51;72.34;101796.84;5060660;28;20768;-69
2022/02/08 00:36:38;;;;;;;9.83;3.80;;;;;;;5.58;72.09;101788.53;5060969;28;20428;-70
2022/02/08 00:39:07;;;;;;;10.00;3.93;;;;;;;5.39;72.66;101787.66;5061436;28;20239;-71
2022/02/08 00:41:33;;;;;;;6.97;3.13;;;;;;;5.51;71.44;101789.94;5060923;28;20180;-71
2022/02/08 00:44:09;;;;;;;8.47;3.73;;;;;;;5.40;71.93;101780.81;5060787;28;20416;-67
2022/02/08 00:46:44;;;;;;;9.83;3.93;;;;;;;9.46;75.38;101766.34;5060589;28;20439;-62
2022/02/08 00:49:11;;;;;;;7.70;3.90;;;;;;;9.39;65.17;101760.97;5060706;28;20422;-69
2022/02/08 00:54:32;;;;;;;10.07;3.90;;;;;;;5.86;68.84;101766.53;5047487;28;20448;-70
2022/02/08 00:56:57;;;;;;;14.67;4.13;;;;;;;6.06;69.46;101757.09;5060934;28;20710;-70
2022/02/08 00:59:22;;;;;;;9.10;4.30;;;;;;;6.23;69.31;101757.84;5043549;28;20260;-69
2022/02/08 01:01:48;;;;;;;9.40;4.00;;;;;;;5.84;70.15;101752.63;5061190;28;20442;-68
2022/02/08 01:04:14;;;;;;;9.53;3.93;;;;;;;5.87;70.50;101758.84;5060596;28;20174;-69
2022/02/08 01:06:41;;;;;;;14.33;4.20;;;;;;;5.89;70.05;101751.16;5060628;28;20427;-70
2022/02/08 01:09:13;;;;;;;10.03;4.87;;;;;;;5.76;71.01;101754.88;5061012;28;20382;-70
2022/02/08 01:11:39;;;;;;;12.40;4.80;;;;;;;5.95;70.24;101751.41;5044132;28;20463;-69
2022/02/08 01:14:05;;;;;;;8.93;4.10;;;;;;;5.95;69.77;101746.22;5060313;28;20398;-69
2022/02/08 01:16:31;;;;;;;8.87;4.23;;;;;;;5.84;70.74;101737.97;5059658;28;20428;-69
2022/02/08 01:18:58;;;;;;;9.93;4.33;;;;;;;6.13;69.20;101746.22;5061231;28;20483;-69
2022/02/08 01:21:24;;;;;;;8.63;4.03;;;;;;;5.59;70.15;101742.84;5066333;28;20257;-70
2022/02/08 01:23:49;;;;;;;7.93;4.00;;;;;;;5.86;70.98;101736.38;5071206;28;20385;-69
2022/02/08 01:26:17;;;;;;;14.57;4.67;;;;;;;6.15;71.37;101741.97;5068940;28;20428;-69
2022/02/08 01:28:57;;;;;;;6.30;4.00;;;;;;;6.11;70.40;101731.44;5048280;28;20231;-69
2022/02/08 01:31:23;;;;;;;11.83;4.00;;;;;;;6.38;69.86;101716.19;5077091;28;20439;-69
2022/02/08 01:39:14;;;;;;;6.13;3.50;;;;;;;5.98;71.27;101715.34;5060160;28;20439;-69
2022/02/08 01:42:20;;;;;;;8.53;4.07;;;;;;;5.99;72.10;101711.94;5060065;28;20416;-69
2022/02/08 01:45:02;;;;;;;12.83;4.47;;;;;;;5.65;72.43;101705.22;5059724;28;20408;-69
2022/02/08 01:47:31;;;;;;;10.93;4.30;;;;;;;5.72;72.01;101702.13;5059867;28;20423;-70
2022/02/08 01:50:00;;;;;;;7.23;3.67;;;;;;;5.83;74.28;101704.28;5042940;28;20423;-69
2022/02/08 01:52:26;;;;;;;8.60;4.50;;;;;;;5.68;74.48;101707.06;5059720;28;20416;-69
2022/02/08 01:54:53;;;;;;;8.90;4.47;;;;;;;5.48;73.75;101699.28;5059444;28;20434;-69
2022/02/08 01:57:18;;;;;;;10.70;4.80;;;;;;;6.02;73.21;101691.38;5059990;28;20401;-69
2022/02/08 01:59:44;;;;;;;11.17;4.50;;;;;;;6.04;72.20;101688.84;5059693;28;20394;-69
2022/02/08 02:02:09;;;;;;;6.47;4.10;;;;;;;5.78;74.23;101691.16;5059742;28;20170;-69
2022/02/08 02:04:34;;;;;;;10.60;4.53;;;;;;;5.74;74.13;101697.88;5042377;28;20166;-70
2022/02/08 02:07:01;;;;;;;10.43;4.70;;;;;;;5.58;75.50;101698.00;5059348;28;20173;-69
2022/02/08 02:09:26;;;;;;;8.90;4.80;;;;;;;5.88;75.33;101685.53;5042255;28;20170;-69
2022/02/08 02:11:55;;;;;;;8.90;5.33;;;;;;;5.74;76.50;101679.75;5060031;28;20653;-70
2022/02/08 02:14:21;;;;;;;8.23;5.40;;;;;;;5.58;76.66;101679.91;5059290;28;20208;-69
2022/02/08 02:16:58;;;;;;;8.17;4.90;;;;;;;5.43;77.27;101684.38;5059361;28;20677;-70
2022/02/08 02:19:26;;;;;;;11.17;5.57;;;;;;;5.72;76.56;101676.25;5059324;28;20169;-69
2022/02/08 02:21:52;;;;;;;10.80;5.60;;;;;;;5.86;77.61;101663.91;5059248;28;20435;-69
2022/02/08 02:24:17;;;;;;;8.57;5.57;;;;;;;5.36;78.87;101660.81;5059763;28;20396;-70
2022/02/08 02:26:43;;;;;;;8.23;5.80;;;;;;;5.55;79.45;101666.84;5059031;28;20185;-69
2022/02/08 02:29:08;;;;;;;13.20;6.50;;;;;;;5.26;80.13;101663.78;5042214;28;20231;-70
2022/02/08 02:31:33;;;;;;;10.90;6.30;;;;;;;5.83;79.29;101652.53;5045828;28;20207;-70
2022/02/08 02:33:59;;;;;;;13.17;6.37;;;;;;;5.69;79.52;101642.44;5042996;28;20173;-70
2022/02/08 02:36:24;;;;;;;18.00;7.67;;;;;;;5.42;79.97;101643.81;5077800;28;20235;-69
2022/02/08 02:38:50;;;;;;;15.20;7.50;;;;;;;5.46;80.92;101630.22;5079421;28;20177;-69
2022/02/08 02:41:15;;;;;;;15.97;7.13;;;;;;;5.36;81.35;101641.84;5078673;28;20215;-70
2022/02/08 02:43:43;;;;;;;15.27;7.87;;;;;;;5.46;80.37;101646.59;5078858;28;20260;-70
2022/02/08 02:46:08;;;;;;;18.27;8.50;;;;;;;5.45;81.74;101634.47;5079003;28;20244;-70
2022/02/08 02:48:34;;;;;;;15.47;9.10;;;;;;;5.37;80.98;101635.84;5078647;28;20450;-69
2022/02/08 02:50:59;;;;;;;11.90;9.10;;;;;;;5.60;80.56;101633.41;5078485;28;20297;-69
2022/02/08 02:53:26;;;;;;;17.97;9.67;;;;;;;5.56;80.50;101620.34;5079310;28;20184;-69
2022/02/08 02:55:52;;;;;;;13.33;9.73;;;;;;;5.81;79.98;101628.28;5078431;28;20593;-69
2022/02/08 02:58:20;;;;;;;18.87;9.47;;;;;;;5.96;80.46;101618.59;5078366;28;20423;-69
2022/02/08 03:01:03;;;;;;;17.70;9.73;;;;;;;5.69;79.78;101620.88;5061763;28;20188;-70
2022/02/08 03:19:51;;;;;;;17.67;10.80;;;;;;;5.76;82.06;101627.22;5078317;28;20416;-68
2022/02/08 03:22:17;;;;;;;16.00;11.57;;;;;;;5.94;81.93;101624.53;5078168;28;20426;-69
2022/02/08 03:24:42;;;;;;;17.10;12.10;;;;;;;5.79;81.74;101622.16;5077902;28;20164;-69
2022/02/08 03:27:08;;;;;;;17.20;12.50;;;;;;;5.81;82.02;101603.28;5078147;28;20176;-69
2022/02/08 03:29:33;;;;;;;19.23;12.33;;;;;;;5.76;82.39;101597.03;5078678;28;20456;-69
2022/02/08 03:31:58;;;;;;;17.30;13.20;;;;;;;5.83;81.77;101617.19;5060674;28;20566;-69
2022/02/08 03:34:24;;;;;;;16.30;12.23;;;;;;;6.06;82.38;101619.88;5077823;28;20568;-70
2022/02/08 03:36:50;;;;;;;19.03;12.73;;;;;;;5.78;82.05;101607.44;5078575;28;20519;-69
2022/02/08 03:39:20;;;;;;;22.43;13.97;;;;;;;5.95;82.53;101601.28;5079791;28;20492;-70
2022/02/08 03:41:53;;;;;;;19.60;13.00;;;;;;;5.90;82.33;101595.06;5082791;28;20909;-71
2022/02/08 03:44:22;;;;;;;20.60;13.13;;;;;;;5.89;82.04;101594.16;5082001;28;20411;-69
2022/02/08 03:46:47;;;;;;;19.67;13.10;;;;;;;6.01;81.98;101591.25;5081947;28;20397;-70
2022/02/08 03:49:14;;;;;;;22.53;13.07;;;;;;;6.03;82.38;101586.13;5082298;28;20452;-69
2022/02/08 03:52:01;;;;;;;29.83;14.37;;;;;;;6.09;82.25;101599.34;5082034;28;20179;-70
2022/02/08 03:54:26;;;;;;;19.10;13.33;;;;;;;6.10;81.89;101595.91;5089193;28;20439;-68
2022/02/08 03:56:51;;;;;;;20.77;14.43;;;;;;;6.31;81.79;101585.56;5081791;28;20426;-69
2022/02/08 03:59:17;;;;;;;20.30;15.10;;;;;;;5.94;82.65;101596.97;5082041;28;20250;-70
2022/02/08 04:04:50;;;;;;;21.33;14.87;;;;;;;6.14;82.42;101587.44;5027692;28;20462;-70
2022/02/08 04:07:24;;;;;;;26.03;15.70;;;;;;;6.17;82.24;101586.69;5081960;28;20398;-69
2022/02/08 04:09:52;;;;;;;20.30;15.10;;;;;;;6.19;82.67;101587.66;5064303;28;20774;-69
2022/02/08 04:12:28;;;;;;;20.23;14.30;;;;;;;6.02;83.25;101579.16;5081807;28;20414;-69
2022/02/08 04:15:13;;;;;;;25.87;15.90;;;;;;;6.28;82.83;101585.44;5081637;28;20450;-69
2022/02/08 04:17:56;;;;;;;19.07;15.70;;;;;;;6.47;82.03;101587.06;5081634;28;20813;-69
2022/02/08 04:39:26;;;;;;;26.73;15.40;;;;;;;6.38;83.48;101572.03;5081916;28;20247;-70
2022/02/08 04:42:07;;;;;;;22.97;16.07;;;;;;;6.97;83.27;101558.75;5069447;28;20683;-69
2022/02/08 04:44:45;;;;;;;24.23;16.83;;;;;;;6.56;82.62;101558.03;5063681;28;20415;-69
2022/02/08 04:47:22;;;;;;;29.17;18.07;;;;;;;6.45;83.36;101567.09;5080980;28;20418;-70
2022/02/08 04:49:49;;;;;;;24.03;15.53;;;;;;;6.59;83.60;101565.94;5081052;28;20418;-68
2022/02/08 04:52:16;;;;;;;24.33;18.17;;;;;;;6.75;82.37;101554.44;5081071;28;20408;-70
2022/02/08 04:54:51;;;;;;;26.40;17.23;;;;;;;6.73;83.13;101562.16;5080666;28;20465;-69
2022/02/08 04:57:24;;;;;;;28.00;17.73;;;;;;;6.82;83.79;101561.66;5080823;28;20414;-69
2022/02/08 05:26:32;;;;;;;21.17;16.60;;;;;;;6.94;82.87;101563.84;5081456;28;20449;-68
2022/02/08 05:26:50;;;;;;;28.80;16.67;;;;;;;6.89;82.83;101557.59;5065641;28;20181;-69
2022/02/08 05:48:48;;;;;;;21.70;16.50;;;;;;;7.02;85.69;101533.91;5062376;28;20374;-69
2022/02/08 05:51:22;;;;;;;24.80;18.40;;;;;;;7.29;84.43;101522.72;5079616;28;20179;-70
2022/02/08 05:53:48;;;;;;;28.50;20.43;;;;;;;7.17;84.78;101522.28;5079390;28;20422;-69
2022/02/08 05:56:15;;;;;;;31.90;19.33;;;;;;;7.47;85.01;101509.56;5079385;28;20467;-69
2022/02/08 05:58:42;;;;;;;22.83;17.20;;;;;;;7.07;85.98;101503.81;5062035;28;20246;-69
2022/02/08 06:01:08;;;;;;;28.13;18.80;;;;;;;7.22;85.84;101507.78;5079008;28;20418;-70
2022/02/08 06:03:33;;;;;;;26.93;18.33;;;;;;;7.06;85.72;101493.38;5079594;28;20656;-68
2022/02/08 06:05:58;;;;;;;28.80;20.17;;;;;;;7.30;85.51;101501.16;5079330;28;20172;-68
2022/02/08 06:08:24;;;;;;;32.40;19.57;;;;;;;7.08;86.28;101492.63;5079309;28;20222;-69
2022/02/08 06:10:54;;;;;;;29.50;20.83;;;;;;;7.39;85.77;101501.50;5079743;28;20239;-69
2022/02/08 06:13:20;;;;;;;31.90;19.80;;;;;;;7.44;85.51;101505.94;5079131;28;20165;-69
2022/02/08 06:15:48;;;;;;;30.00;20.80;;;;;;;7.36;85.12;101514.38;5079043;28;20462;-69
2022/02/08 06:18:14;;;;;;;30.90;21.80;;;;;;;7.21;86.17;101512.09;5079666;28;20498;-71
2022/02/08 06:20:39;;;;;;;35.90;21.27;;;;;;;7.44;85.49;101504.22;5079201;28;20413;-70
2022/02/08 06:23:05;;;;;;;27.87;20.70;;;;;;;7.33;85.68;101527.19;5078821;28;20422;-70
2022/02/08 06:25:30;;;;;;;32.07;22.73;;;;;;;7.16;85.51;101515.38;5062056;28;20173;-69
2022/02/08 06:27:56;;;;;;;36.03;22.93;;;;;;;7.19;86.96;101526.72;5078870;28;20191;-69
2022/02/08 06:30:22;;;;;;;31.70;20.80;;;;;;;7.40;85.82;101533.50;5078826;28;20164;-68
2022/02/08 06:32:50;;;;;;;26.30;20.70;;;;;;;7.46;86.33;101533.72;5079398;28;20546;-68
2022/02/08 06:35:22;;;;;;;31.27;21.57;;;;;;;7.44;86.16;101524.97;5080801;28;20471;-69
2022/02/08 06:37:48;;;;;;;34.50;21.00;;;;;;;7.48;85.84;101533.75;5083733;28;20414;-69
2022/02/08 06:40:14;;;;;;;33.40;22.27;;;;;;;7.58;85.71;101520.28;5064156;28;20411;-70
2022/02/08 06:42:41;;;;;;;29.60;21.40;;;;;;;7.51;85.56;101513.09;5062986;28;20669;-70
2022/02/08 06:45:08;;;;;;;32.47;22.13;;;;;;;7.51;86.09;101513.09;5062488;28;20169;-71
2022/02/08 06:47:33;;;;;;;31.60;21.53;;;;;;;7.86;85.27;101501.34;5078424;28;20488;-70
2022/02/08 06:49:59;;;;;;;34.77;20.53;;;;;;;7.63;85.47;101515.25;5078536;28;20687;-70
2022/02/08 06:52:25;;;;;;;33.57;21.87;;;;;;;7.62;85.38;101524.75;5078892;28;20169;-69
2022/02/08 06:54:50;;;;;;;30.33;21.63;;;;;;;7.70;85.25;101528.50;5078172;28;20197;-71
2022/02/08 06:57:17;;;;;;;34.57;20.07;;;;;;;7.55;85.99;101526.25;5078341;28;20485;-69
2022/02/08 06:59:49;;;;;;;34.63;23.20;;;;;;;7.68;85.71;101527.53;5078954;28;20455;-70
2022/02/08 07:02:15;;;;;;;34.27;22.37;;;;;;;7.98;85.54;101524.22;5078418;28;20407;-69
2022/02/08 07:04:40;;;;;;;30.47;20.90;;;;;;;7.86;85.35;101516.03;5078058;28;20810;-70
2022/02/08 07:07:07;;;;;;;28.70;20.60;;;;;;;7.77;85.29;101519.22;5078778;28;20164;-70
2022/02/08 07:09:32;;;;;;;34.10;21.17;;;;;;;7.85;84.77;101514.28;5078212;28;20223;-71
2022/02/08 07:11:59;;;;;;;28.57;20.73;;;;;;;8.12;84.54;101513.41;5078405;28;20411;-69
2022/02/08 07:14:29;;;;;;;31.60;21.10;;;;;;;8.36;83.08;101500.31;5077508;28;20592;-69
2022/02/08 07:16:54;;;;;;;37.90;21.80;;;;;;;8.11;84.23;101501.25;5078083;28;20433;-69
2022/02/08 07:19:19;;;;;;;27.53;19.83;;;;;;;8.09;84.67;101508.97;5077966;28;20871;-69
2022/02/08 07:21:44;;;;;;;26.70;20.57;;;;;;;8.16;83.51;101503.16;5061606;28;20177;-70
2022/02/08 07:24:11;;;;;;;31.93;21.70;;;;;;;8.11;83.45;101496.06;5060438;28;20188;-68
2022/02/08 07:26:37;;;;;;;32.67;20.10;;;;;;;8.24;83.85;101495.59;5078101;28;20193;-70
2022/02/08 07:29:02;;;;;;;33.77;20.80;;;;;;;8.40;83.38;101505.66;5061110;28;20462;-68
2022/02/08 07:31:36;;;;;;;33.37;20.77;;;;;;;8.05;83.67;101492.44;5080076;28;20176;-68
2022/02/08 07:34:14;;;;;;;28.97;20.50;;;;;;;8.46;84.24;101493.69;5085747;28;20185;-70
2022/02/08 07:36:46;;;;;;;35.03;20.63;;;;;;;8.27;84.66;101495.72;5066116;28;20383;-69
2022/02/08 07:39:22;;;;;;;33.40;20.97;;;;;;;8.44;85.23;101485.81;5048143;28;20432;-69
2022/02/08 07:41:47;;;;;;;32.10;22.77;;;;;;;8.42;84.37;101488.38;5058831;28;20498;-69
2022/02/08 07:44:13;;;;;;;29.40;20.83;;;;;;;8.16;85.75;101489.28;5058233;28;20749;-69
2022/02/08 07:46:38;;;;;;;25.53;19.00;;;;;;;8.19;86.00;101479.88;5057964;28;20550;-69
2022/02/08 07:49:04;;;;;;;34.53;20.80;;;;;;;8.32;85.90;101475.06;5058085;28;20170;-70
2022/02/08 07:51:36;;;;;;;30.40;21.20;;;;;;;8.12;86.71;101479.63;5058401;28;20256;-70
2022/02/08 07:54:01;;;;;;;30.10;20.50;;;;;;;8.15;87.50;101484.94;5057214;28;20416;-70
2022/02/08 07:56:27;;;;;;;31.43;20.10;;;;;;;8.27;87.39;101487.94;5040205;28;20536;-69
2022/02/08 07:58:53;;;;;;;30.37;18.80;;;;;;;8.25;86.71;101485.28;5058284;28;20177;-69
2022/02/08 08:01:18;;;;;;;29.60;18.60;;;;;;;8.15;87.67;101484.94;5058123;28;20180;-72
2022/02/08 08:03:43;;;;;;;33.07;20.67;;;;;;;8.34;86.85;101489.00;5057951;28;20185;-69
2022/02/08 08:06:10;;;;;;;35.10;21.20;;;;;;;8.61;87.02;101485.50;5059775;28;20162;-69
2022/02/08 08:08:36;;;;;;;32.20;21.50;;;;;;;8.69;86.61;101487.47;5061166;28;20170;-69
2022/02/08 08:11:04;;;;;;;30.00;19.70;;;;;;;8.55;87.56;101487.09;5025207;28;20431;-70
2022/02/08 08:13:30;;;;;;;33.47;19.43;;;;;;;8.38;87.96;101496.91;5058294;28;20177;-69
2022/02/08 08:16:10;;;;;;;31.83;19.80;;;;;;;8.63;87.70;101486.41;5040183;28;20550;-70
2022/02/08 08:18:54;;;;;;;26.87;17.60;;;;;;;8.61;88.72;101473.38;5057559;28;20427;-70
2022/02/08 08:21:20;;;;;;;28.63;19.10;;;;;;;8.56;88.26;101478.44;5057523;28;20452;-68
2022/02/08 08:23:45;;;;;;;27.63;19.00;;;;;;;8.63;88.13;101468.22;5057418;28;20777;-67
2022/02/08 08:26:10;;;;;;;33.23;19.60;;;;;;;8.64;87.93;101478.66;5060298;28;20173;-68
2022/02/08 08:28:36;;;;;;;29.57;18.67;;;;;;;8.57;88.41;101488.00;5061216;28;20166;-67
2022/02/08 08:31:01;;;;;;;28.23;16.93;;;;;;;8.51;88.70;101486.94;5061582;28;20430;-67
2022/02/08 08:33:28;;;;;;;27.87;18.27;;;;;;;8.69;88.37;101484.00;5061064;28;20565;-69
2022/02/08 08:35:53;;;;;;;27.07;18.57;;;;;;;8.96;88.85;101491.72;5075588;28;20264;-71
2022/02/08 08:38:19;;;;;;;35.83;17.83;;;;;;;8.49;88.92;101489.47;5063777;28;20811;-69
2022/02/08 08:51:16;;;;;;;28.43;17.63;;;;;;;8.85;89.67;101485.31;5080782;28;20390;-67
2022/02/08 08:53:43;;;;;;;25.10;16.40;;;;;;;8.86;89.69;101480.19;5080454;28;20419;-68
2022/02/08 08:56:09;;;;;;;20.73;16.00;;;;;;;8.65;89.52;101501.22;5063168;28;20433;-69
2022/02/08 08:58:36;;;;;;;19.87;15.97;;;;;;;8.99;89.37;101484.00;5080594;28;20423;-70
2022/02/08 09:01:01;;;;;;;21.00;15.50;;;;;;;9.01;89.92;101491.84;5080460;28;20445;-69
2022/02/08 09:03:26;;;;;;;22.30;16.30;;;;;;;8.88;89.05;101496.69;5080876;28;20418;-67
2022/02/08 09:05:53;;;;;;;23.50;15.70;;;;;;;9.00;89.38;101501.38;5080515;28;20177;-68
2022/02/08 09:08:20;;;;;;;21.10;14.00;;;;;;;8.60;90.96;101502.81;5080620;28;20169;-69
2022/02/08 09:10:53;;;;;;;21.23;15.70;;;;;;;8.84;90.53;101488.78;5081119;28;20407;-69
2022/02/08 09:18:45;;;;;;;19.97;14.30;;;;;;;8.97;89.38;101485.69;5081496;28;20807;-69
2022/02/08 09:27:33;;;;;;;16.83;11.93;;;;;;;8.99;90.02;101478.78;5080142;28;20389;-70
2022/02/08 09:29:39;;;;;;;20.90;12.83;;;;;;;9.30;89.88;101468.38;5076755;28;20404;-69
2022/02/08 09:32:21;;;;;;;15.47;12.83;;;;;;;9.42;88.21;101463.47;5079863;28;20422;-69
2022/02/08 09:34:47;;;;;;;16.57;12.00;;;;;;;8.98;90.15;101466.63;5079537;28;20470;-70
2022/02/08 09:37:17;;;;;;;18.70;13.00;;;;;;;9.42;89.30;101471.28;5079002;28;20484;-69
2022/02/08 09:39:43;;;;;;;17.97;13.77;;;;;;;9.21;88.65;101475.06;5079677;28;20435;-69
2022/02/08 09:42:09;;;;;;;19.00;12.00;;;;;;;9.31;89.65;101491.81;5079885;28;20382;-69
2022/02/08 09:44:37;;;;;;;14.23;12.03;;;;;;;9.06;89.80;101495.47;5079829;28;20428;-70
2022/02/08 09:47:07;;;;;;;15.03;11.30;;;;;;;9.03;89.22;101482.38;5062482;28;20455;-72
2022/02/08 09:49:32;;;;;;;17.70;12.90;;;;;;;9.12;89.69;101474.84;5039865;28;20421;-70
2022/02/08 09:52:00;;;;;;;15.13;11.67;;;;;;;8.96;89.49;101488.22;5040732;28;20405;-76
2022/02/08 09:54:26;;;;;;;16.23;12.20;;;;;;;9.16;89.75;101489.69;5039285;28;20183;-71
2022/02/08 09:56:51;;;;;;;12.10;10.80;;;;;;;9.08;89.29;101492.06;5039546;28;20811;-73
2022/02/08 09:59:16;;;;;;;20.17;12.40;;;;;;;9.71;86.89;101487.63;5039695;28;20420;-70
2022/02/08 10:01:52;;;;;;;16.37;10.57;;;;;;;9.22;88.30;101497.63;5039394;28;20183;-71
2022/02/08 10:04:18;;;;;;;15.87;11.30;;;;;;;9.24;88.51;101515.88;5039436;28;20216;-71
2022/02/08 10:06:43;;;;;;;20.73;11.60;;;;;;;9.33;88.19;101497.94;5039403;28;20425;-70
2022/02/08 10:09:09;;;;;;;15.37;10.33;;;;;;;9.08;88.82;101505.06;5039492;28;20170;-71
2022/02/08 10:11:45;;;;;;;18.07;10.53;;;;;;;9.23;88.89;101509.81;5039517;28;20181;-71
2022/02/08 10:14:22;;;;;;;14.80;10.37;;;;;;;9.19;88.26;101509.69;5039222;28;20427;-71
2022/02/08 10:22:35;;;;;;;17.03;10.33;;;;;;;9.40;88.59;101541.50;5060993;28;20431;-72
2022/02/08 10:25:05;;;;;;;17.70;9.43;;;;;;;9.17;88.66;101526.97;5078943;28;20422;-69
2022/02/08 10:27:44;;;;;;;17.07;9.53;;;;;;;9.23;88.79;101538.44;5078863;28;20434;-69
2022/02/08 10:30:44;;;;;;;11.20;9.27;;;;;;;9.14;89.99;101540.78;5078733;28;20377;-75
2022/02/08 10:38:44;;;;;;;17.40;9.10;;;;;;;9.20;89.67;101542.66;5065295;28;20780;-74
2022/02/08 10:41:21;;;;;;;13.80;8.77;;;;;;;8.95;90.19;101536.75;5079036;28;20411;-72
2022/02/08 10:44:02;;;;;;;14.90;8.97;;;;;;;9.51;89.39;101548.72;5078659;28;20385;-71
2022/02/08 10:46:27;;;;;;;15.30;8.80;;;;;;;9.38;88.61;101551.00;5078811;28;20415;-71
2022/02/08 10:49:19;;;;;;;15.33;8.60;;;;;;;9.68;87.96;101544.84;5060968;28;20719;-71
2022/02/08 10:51:55;;;;;;;9.33;8.10;;;;;;;9.44;87.82;101551.16;5073566;28;20534;-75
2022/02/08 10:54:38;;;;;;;13.13;8.57;;;;;;;9.60;88.18;101547.22;5078197;28;20393;-76
2022/02/08 10:57:12;;;;;;;11.73;8.00;;;;;;;9.76;87.82;101552.88;5078381;28;20393;-71
2022/02/08 10:59:48;;;;;;;11.83;8.27;;;;;;;9.50;86.95;101549.53;5078178;28;20407;-71
2022/02/08 11:02:25;;;;;;;15.30;8.83;;;;;;;9.75;87.86;101546.75;5078535;28;20827;-71
2022/02/08 11:05:09;;;;;;;13.17;7.87;;;;;;;9.54;87.34;101554.00;5062566;28;20407;-71
2022/02/08 11:12:58;;;;;;;16.10;7.40;;;;;;;9.76;87.71;101558.94;5078144;28;20875;-71
2022/02/08 11:15:54;;;;;;;13.53;7.63;;;;;;;9.67;87.83;101550.88;5077806;28;20470;-70
2022/02/08 11:20:45;;;;;;;13.60;8.77;;;;;;;9.55;88.23;101558.38;5058159;28;20507;-70
2022/02/08 11:23:13;;;;;;;15.43;8.77;;;;;;;9.62;88.08;101560.31;5052371;28;20432;-72
2022/02/08 11:25:43;;;;;;;9.10;7.77;;;;;;;9.40;88.52;101562.34;5040492;28;20448;-72
2022/02/08 11:28:20;;;;;;;12.20;7.10;;;;;;;9.63;88.50;101553.38;5057907;28;20440;-71
2022/02/08 11:31:08;;;;;;;13.90;7.50;;;;;;;9.60;88.00;101565.44;5057829;28;20394;-72
2022/02/08 11:33:48;;;;;;;9.17;7.40;;;;;;;9.47;89.04;101573.81;5041872;28;20711;-71
2022/02/08 11:52:26;;;;;;;10.77;7.33;;;;;;;9.41;90.13;101566.69;5057663;28;20402;-72
2022/02/08 12:05:10;;;;;;;13.30;8.20;;;;;;;9.66;88.75;101567.38;5062009;28;20410;-70
2022/02/08 12:07:36;;;;;;;15.60;8.33;;;;;;;9.48;88.74;101572.06;5061692;28;20791;-70
2022/02/08 12:11:06;;;;;;;17.33;8.40;;;;;;;9.28;89.55;101574.97;5061599;28;20669;-69
2022/02/08 12:28:00;;;;;;;12.40;7.00;;;;;;;9.63;89.21;101588.09;5061448;28;20824;-71
2022/02/08 12:33:18;;;;;;;8.97;7.03;;;;;;;9.81;88.63;101594.63;5020067;28;20449;-72
2022/02/08 12:50:17;;;;;;;11.67;7.03;;;;;;;9.44;89.63;101595.41;5081129;28;20432;-73
2022/02/08 12:55:29;;;;;;;11.20;6.40;;;;;;;9.55;89.29;101602.63;5080518;28;20826;-71
2022/02/08 13:00:51;;;;;;;11.10;6.67;;;;;;;9.66;88.33;101609.03;5080671;28;20423;-75
2022/02/08 13:03:43;;;;;;;12.07;7.20;;;;;;;9.69;88.86;101613.44;5080262;28;20455;-72
2022/02/08 14:04:28;;;;;;;5.87;4.77;;;;;;;10.55;85.55;101640.84;5059464;28;20409;-71
2022/02/08 14:09:11;;;;;;;8.03;4.57;;;;;;;10.00;87.67;101635.97;5059752;28;20491;-72
2022/02/08 14:14:33;;;;;;;7.23;4.63;;;;;;;9.92;87.40;101634.88;5044290;28;20924;-74
2022/02/08 14:17:28;;;;;;;5.30;4.70;;;;;;;9.95;87.89;101633.22;5041525;28;20394;-75
2022/02/08 14:20:15;;;;;;;5.03;4.63;;;;;;;10.40;86.69;101636.13;5058478;28;20404;-72
2022/02/08 14:25:32;;;;;;;6.83;4.40;;;;;;;9.81;87.32;101638.91;5038712;28;20496;-72
2022/02/08 15:10:21;;;;;;;4.00;3.60;;;;;;;10.50;85.92;101653.78;5058277;28;20434;-72
2022/02/08 15:12:53;;;;;;;4.40;4.00;;;;;;;10.29;85.53;101656.69;5057928;28;20427;-73
2022/02/08 15:15:32;;;;;;;4.63;4.23;;;;;;;10.21;86.90;101651.25;5057810;28;20443;-75
2022/02/08 15:17:58;;;;;;;5.87;3.93;;;;;;;10.07;86.84;101658.72;5057763;28;20398;-73
2022/02/08 15:20:24;;;;;;;5.70;4.50;;;;;;;9.70;87.32;101657.75;5057610;28;20539;-72
2022/02/08 15:22:50;;;;;;;4.67;4.23;;;;;;;9.80;88.19;101661.47;5057939;28;20185;-71
2022/02/08 15:25:16;;;;;;;6.37;4.50;;;;;;;9.95;87.32;101669.69;5040055;28;20733;-71
2022/02/08 15:27:43;;;;;;;5.60;4.47;;;;;;;12.67;85.70;101659.00;5057734;28;20178;-62
2022/02/08 15:30:09;;;;;;;5.03;4.33;;;;;;;12.59;77.57;101666.72;5057918;28;20257;-62
2022/02/08 15:32:36;;;;;;;4.43;4.03;;;;;;;13.46;76.33;101663.66;5040379;28;20508;-61
2022/02/08 15:35:02;;;;;;;4.07;3.67;;;;;;;11.25;77.85;101678.09;5064467;28;20456;-71
2022/02/08 15:37:30;;;;;;;4.27;3.90;;;;;;;10.71;82.73;101681.22;5077638;28;20804;-70
2022/02/08 15:39:59;;;;;;;3.80;3.50;;;;;;;10.32;84.14;101690.63;5077805;28;20739;-70
2022/02/08 15:42:30;;;;;;;3.63;3.33;;;;;;;10.50;83.35;101685.06;5077284;28;20423;-69
2022/02/08 15:44:57;;;;;;;4.07;3.67;;;;;;;10.31;84.85;101688.00;5077536;28;20457;-71
2022/02/08 15:47:23;;;;;;;4.53;3.80;;;;;;;10.25;85.45;101693.94;5060024;28;20423;-70
2022/02/08 15:49:57;;;;;;;4.00;3.60;;;;;;;10.27;85.00;101698.34;5077523;28;20445;-72
2022/02/08 15:52:43;;;;;;;5.60;3.80;;;;;;;10.39;85.66;101692.59;5077231;28;20256;-71
2022/02/08 15:55:15;;;;;;;5.07;3.50;;;;;;;10.23;85.52;101706.91;5076576;28;20433;-71
2022/02/08 16:08:29;;;;;;;3.80;3.40;;;;;;;10.38;84.19;101711.69;5077232;28;20401;-71
2022/02/08 16:11:08;;;;;;;3.60;3.30;;;;;;;10.09;84.45;101714.38;5077589;28;20821;-71
2022/02/08 16:16:23;;;;;;;3.50;3.20;;;;;;;10.39;84.10;101718.69;5077454;28;20438;-72
2022/02/08 16:19:00;;;;;;;5.47;2.97;;;;;;;10.27;85.06;101718.31;5077340;28;20438;-72
2022/02/08 16:21:44;;;;;;;5.93;3.93;;;;;;;10.18;85.68;101726.75;5077094;28;20810;-72
2022/02/08 16:24:30;;;;;;;3.67;3.37;;;;;;;10.20;85.78;101726.78;5077152;28;20428;-72
2022/02/08 16:27:15;;;;;;;3.70;3.40;;;;;;;11.33;83.40;101721.78;5077117;28;20420;-62
2022/02/08 16:32:36;;;;;;;3.00;2.70;;;;;;;11.33;78.43;101732.22;5076649;28;21061;-71
2022/02/08 16:59:07;;;;;;;4.00;3.40;;;;;;;10.13;82.42;101763.97;5060857;28;20173;-74
2022/02/08 17:01:35;;;;;;;5.93;3.70;;;;;;;9.99;82.70;101756.63;5061163;28;20473;-71
2022/02/08 17:04:00;;;;;;;4.10;3.67;;;;;;;10.09;82.62;101755.16;5060352;28;20430;-71
2022/02/08 17:06:27;;;;;;;3.70;3.40;;;;;;;10.07;83.22;101752.53;5060674;28;20398;-71
2022/02/08 17:09:03;;;;;;;4.00;3.60;;;;;;;10.06;83.31;101749.88;5060522;28;20247;-71
2022/02/08 17:11:43;;;;;;;5.37;3.80;;;;;;;10.28;82.38;101751.34;5060242;28;20793;-70
2022/02/08 17:14:25;;;;;;;5.07;3.80;;;;;;;10.17;82.26;101758.00;5060245;28;20546;-70
2022/02/08 17:17:05;;;;;;;4.73;4.23;;;;;;;10.09;82.09;101766.50;5060365;28;20467;-71